sensor_id;sensor_type;location;lat;lon;timestamp;temperature;humidity
2931;DHT22;1475;51.454;7.150;2022-09-04T00:02:22;16.00;99.90
2931;DHT22;1475;51.454;7.150;2022-09-04T00:04:55;15.90;99.90
2931;DHT22;1475;51.454;7.150;2022-09-04T00:07:34;15.90;99.90
2931;DHT22;1475;51.454;7.150;2022-09-04T00:10:10;15.90;99.90
2931;DHT22;1475;51.454;7.150;2022-09-04T00:12:44;15.90;99.90
2931;DHT22;1475;51.454;7.150;2022-09-04T00:15:16;15.80;99.90
2931;DHT22;1475;51.454;7.150;2022-09-04T00:17:50;15.80;99.90
2931;DHT22;1475;51.454;7.150;2022-09-04T00:20:26;15.80;99.90
2931;DHT22;1475;51.454;7.150;2022-09-04T00:22:59;15.70;99.90
2931;DHT22;1475;51.454;7.150;2022-09-04T00:25:33;15.70;99.90
2931;DHT22;1475;51.454;7.150;2022-09-04T00:28:05;15.80;99.90
2931;DHT22;1475;51.454;7.150;2022-09-04T00:30:41;15.70;99.90
2931;DHT22;1475;51.454;7.150;2022-09-04T00:33:15;15.70;99.90
2931;DHT22;1475;51.454;7.150;2022-09-04T00:35:47;15.70;99.90
2931;DHT22;1475;51.454;7.150;2022-09-04T00:38:29;15.60;99.90
2931;DHT22;1475;51.454;7.150;2022-09-04T00:41:06;15.60;99.90
2931;DHT22;1475;51.454;7.150;2022-09-04T00:44:02;15.50;99.90
2931;DHT22;1475;51.454;7.150;2022-09-04T00:46:48;15.50;99.90
2931;DHT22;1475;51.454;7.150;2022-09-04T00:49:44;15.50;99.90
2931;DHT22;1475;51.454;7.150;2022-09-04T00:52:25;15.40;99.90
2931;DHT22;1475;51.454;7.150;2022-09-04T00:55:12;15.40;99.90
2931;DHT22;1475;51.454;7.150;2022-09-04T00:58:08;15.40;99.90
2931;DHT22;1475;51.454;7.150;2022-09-04T01:00:38;15.40;99.90
2931;DHT22;1475;51.454;7.150;2022-09-04T01:03:32;15.40;99.90
2931;DHT22;1475;51.454;7.150;2022-09-04T01:06:11;15.50;99.90
2931;DHT22;1475;51.454;7.150;2022-09-04T01:08:55;15.50;99.90
2931;DHT22;1475;51.454;7.150;2022-09-04T01:11:33;15.60;99.90
2931;DHT22;1475;51.454;7.150;2022-09-04T01:14:12;15.70;99.90
2931;DHT22;1475;51.454;7.150;2022-09-04T01:16:45;15.80;99.90
2931;DHT22;1475;51.454;7.150;2022-09-04T01:19:27;15.90;99.90
2931;DHT22;1475;51.454;7.150;2022-09-04T01:22:10;16.00;99.90
2931;DHT22;1475;51.454;7.150;2022-09-04T01:25:03;16.10;99.90
2931;DHT22;1475;51.454;7.150;2022-09-04T01:27:41;16.10;99.90
2931;DHT22;1475;51.454;7.150;2022-09-04T01:30:12;16.10;99.90
2931;DHT22;1475;51.454;7.150;2022-09-04T01:32:53;16.10;99.90
2931;DHT22;1475;51.454;7.150;2022-09-04T01:35:29;16.20;99.90
2931;DHT22;1475;51.454;7.150;2022-09-04T01:38:05;16.20;99.90
2931;DHT22;1475;51.454;7.150;2022-09-04T01:40:41;16.20;99.90
2931;DHT22;1475;51.454;7.150;2022-09-04T01:43:12;16.20;99.90
2931;DHT22;1475;51.454;7.150;2022-09-04T01:45:57;16.20;99.90
2931;DHT22;1475;51.454;7.150;2022-09-04T01:48:33;16.10;99.90
2931;DHT22;1475;51.454;7.150;2022-09-04T01:51:08;16.10;99.90
2931;DHT22;1475;51.454;7.150;2022-09-04T01:53:41;16.00;99.90
2931;DHT22;1475;51.454;7.150;2022-09-04T01:56:15;16.00;99.90
2931;DHT22;1475;51.454;7.150;2022-09-04T01:58:52;15.90;99.90
2931;DHT22;1475;51.454;7.150;2022-09-04T02:01:25;15.90;99.90
2931;DHT22;1475;51.454;7.150;2022-09-04T02:03:59;15.80;99.90
2931;DHT22;1475;51.454;7.150;2022-09-04T02:06:40;15.70;99.90
2931;DHT22;1475;51.454;7.150;2022-09-04T02:09:21;15.70;99.90
2931;DHT22;1475;51.454;7.150;2022-09-04T02:11:58;15.60;99.90
2931;DHT22;1475;51.454;7.150;2022-09-04T02:14:39;15.60;99.90
2931;DHT22;1475;51.454;7.150;2022-09-04T02:17:10;15.50;99.90
2931;DHT22;1475;51.454;7.150;2022-09-04T02:19:50;15.40;99.90
2931;DHT22;1475;51.454;7.150;2022-09-04T02:22:27;15.40;99.90
2931;DHT22;1475;51.454;7.150;2022-09-04T02:25:04;15.30;99.90
2931;DHT22;1475;51.454;7.150;2022-09-04T02:27:44;15.30;99.90
2931;DHT22;1475;51.454;7.150;2022-09-04T02:30:17;15.20;99.90
2931;DHT22;1475;51.454;7.150;2022-09-04T02:32:51;15.20;99.90
2931;DHT22;1475;51.454;7.150;2022-09-04T02:35:26;15.10;99.90
2931;DHT22;1475;51.454;7.150;2022-09-04T02:38:03;15.10;99.90
2931;DHT22;1475;51.454;7.150;2022-09-04T02:40:42;15.00;99.90
2931;DHT22;1475;51.454;7.150;2022-09-04T02:43:23;15.00;99.90
2931;DHT22;1475;51.454;7.150;2022-09-04T02:46:02;14.90;99.90
2931;DHT22;1475;51.454;7.150;2022-09-04T02:48:41;14.90;99.90
2931;DHT22;1475;51.454;7.150;2022-09-04T02:51:19;14.80;99.90
2931;DHT22;1475;51.454;7.150;2022-09-04T02:53:56;14.80;99.90
2931;DHT22;1475;51.454;7.150;2022-09-04T02:56:36;14.80;99.90
2931;DHT22;1475;51.454;7.150;2022-09-04T02:59:27;14.80;99.90
2931;DHT22;1475;51.454;7.150;2022-09-04T03:01:59;14.70;99.90
2931;DHT22;1475;51.454;7.150;2022-09-04T03:04:30;14.70;99.90
2931;DHT22;1475;51.454;7.150;2022-09-04T03:07:05;14.70;99.90
2931;DHT22;1475;51.454;7.150;2022-09-04T03:09:38;14.60;99.90
2931;DHT22;1475;51.454;7.150;2022-09-04T03:12:22;14.60;99.90
2931;DHT22;1475;51.454;7.150;2022-09-04T03:14:59;14.60;99.90
2931;DHT22;1475;51.454;7.150;2022-09-04T03:17:34;14.60;99.90
2931;DHT22;1475;51.454;7.150;2022-09-04T03:20:08;14.60;99.90
2931;DHT22;1475;51.454;7.150;2022-09-04T03:22:43;14.60;99.90
2931;DHT22;1475;51.454;7.150;2022-09-04T03:25:46;14.50;99.90
2931;DHT22;1475;51.454;7.150;2022-09-04T03:28:19;14.50;99.90
2931;DHT22;1475;51.454;7.150;2022-09-04T03:30:50;14.50;99.90
2931;DHT22;1475;51.454;7.150;2022-09-04T03:33:28;14.50;99.90
2931;DHT22;1475;51.454;7.150;2022-09-04T03:36:03;14.50;99.90
2931;DHT22;1475;51.454;7.150;2022-09-04T03:38:39;14.50;99.90
2931;DHT22;1475;51.454;7.150;2022-09-04T03:41:15;14.50;99.90
2931;DHT22;1475;51.454;7.150;2022-09-04T03:43:56;14.50;99.90
2931;DHT22;1475;51.454;7.150;2022-09-04T03:46:32;14.50;99.90
2931;DHT22;1475;51.454;7.150;2022-09-04T03:49:19;14.50;99.90
2931;DHT22;1475;51.454;7.150;2022-09-04T03:51:56;14.50;99.90
2931;DHT22;1475;51.454;7.150;2022-09-04T03:54:42;14.40;99.90
2931;DHT22;1475;51.454;7.150;2022-09-04T03:57:27;14.40;99.90
2931;DHT22;1475;51.454;7.150;2022-09-04T04:00:04;14.40;99.90
2931;DHT22;1475;51.454;7.150;2022-09-04T04:02:59;14.40;99.90
2931;DHT22;1475;51.454;7.150;2022-09-04T04:05:39;14.40;99.90
2931;DHT22;1475;51.454;7.150;2022-09-04T04:08:25;14.40;99.90
2931;DHT22;1475;51.454;7.150;2022-09-04T04:11:01;14.40;99.90
2931;DHT22;1475;51.454;7.150;2022-09-04T04:13:40;14.30;99.90
2931;DHT22;1475;51.454;7.150;2022-09-04T04:16:23;14.30;99.90
2931;DHT22;1475;51.454;7.150;2022-09-04T04:18:58;14.30;99.90
2931;DHT22;1475;51.454;7.150;2022-09-04T04:21:45;14.30;99.90
2931;DHT22;1475;51.454;7.150;2022-09-04T04:24:40;14.20;99.90
2931;DHT22;1475;51.454;7.150;2022-09-04T04:27:22;14.20;99.90
2931;DHT22;1475;51.454;7.150;2022-09-04T04:30:05;14.20;99.90
2931;DHT22;1475;51.454;7.150;2022-09-04T04:32:58;14.20;99.90
2931;DHT22;1475;51.454;7.150;2022-09-04T04:35:40;14.10;99.90
2931;DHT22;1475;51.454;7.150;2022-09-04T04:38:27;14.10;99.90
2931;DHT22;1475;51.454;7.150;2022-09-04T04:41:04;14.10;99.90
2931;DHT22;1475;51.454;7.150;2022-09-04T04:43:42;14.10;99.90
2931;DHT22;1475;51.454;7.150;2022-09-04T04:46:17;14.10;99.90
2931;DHT22;1475;51.454;7.150;2022-09-04T04:52:05;14.10;99.90
2931;DHT22;1475;51.454;7.150;2022-09-04T04:55:07;14.00;99.90
2931;DHT22;1475;51.454;7.150;2022-09-04T04:57:47;14.00;99.90
2931;DHT22;1475;51.454;7.150;2022-09-04T05:00:21;14.10;99.90
2931;DHT22;1475;51.454;7.150;2022-09-04T05:03:00;14.10;99.90
2931;DHT22;1475;51.454;7.150;2022-09-04T05:05:49;14.10;99.90
2931;DHT22;1475;51.454;7.150;2022-09-04T05:08:25;14.10;99.90
2931;DHT22;1475;51.454;7.150;2022-09-04T05:10:59;14.10;99.90
2931;DHT22;1475;51.454;7.150;2022-09-04T05:13:36;14.20;99.90
2931;DHT22;1475;51.454;7.150;2022-09-04T05:16:10;14.20;99.90
2931;DHT22;1475;51.454;7.150;2022-09-04T05:18:44;14.20;99.90
2931;DHT22;1475;51.454;7.150;2022-09-04T05:21:20;14.30;99.90
2931;DHT22;1475;51.454;7.150;2022-09-04T05:23:53;14.30;99.90
2931;DHT22;1475;51.454;7.150;2022-09-04T05:26:28;14.40;99.90
2931;DHT22;1475;51.454;7.150;2022-09-04T05:29:04;14.50;99.90
2931;DHT22;1475;51.454;7.150;2022-09-04T05:31:41;14.50;99.90
2931;DHT22;1475;51.454;7.150;2022-09-04T05:34:28;14.60;99.90
2931;DHT22;1475;51.454;7.150;2022-09-04T05:37:05;14.70;99.90
2931;DHT22;1475;51.454;7.150;2022-09-04T05:39:43;14.70;99.90
2931;DHT22;1475;51.454;7.150;2022-09-04T05:42:37;14.80;99.90
2931;DHT22;1475;51.454;7.150;2022-09-04T05:45:17;15.00;99.90
2931;DHT22;1475;51.454;7.150;2022-09-04T05:48:00;15.10;99.90
2931;DHT22;1475;51.454;7.150;2022-09-04T05:50:54;15.20;99.90
2931;DHT22;1475;51.454;7.150;2022-09-04T05:56:38;15.50;99.90
2931;DHT22;1475;51.454;7.150;2022-09-04T05:59:38;15.60;99.90
2931;DHT22;1475;51.454;7.150;2022-09-04T06:05:28;15.80;99.90
2931;DHT22;1475;51.454;7.150;2022-09-04T06:08:07;15.90;99.90
2931;DHT22;1475;51.454;7.150;2022-09-04T06:10:53;16.10;99.90
2931;DHT22;1475;51.454;7.150;2022-09-04T06:13:39;16.10;99.90
2931;DHT22;1475;51.454;7.150;2022-09-04T06:16:33;16.30;99.90
2931;DHT22;1475;51.454;7.150;2022-09-04T06:19:33;16.40;99.90
2931;DHT22;1475;51.454;7.150;2022-09-04T06:25:14;16.60;99.90
2931;DHT22;1475;51.454;7.150;2022-09-04T06:28:19;16.70;99.90
2931;DHT22;1475;51.454;7.150;2022-09-04T06:30:55;16.80;99.90
2931;DHT22;1475;51.454;7.150;2022-09-04T06:33:47;16.90;99.90
2931;DHT22;1475;51.454;7.150;2022-09-04T06:36:38;16.90;99.90
2931;DHT22;1475;51.454;7.150;2022-09-04T06:42:06;17.10;99.90
2931;DHT22;1475;51.454;7.150;2022-09-04T06:44:45;17.20;99.90
2931;DHT22;1475;51.454;7.150;2022-09-04T06:47:23;17.30;99.90
2931;DHT22;1475;51.454;7.150;2022-09-04T06:50:09;17.40;99.90
2931;DHT22;1475;51.454;7.150;2022-09-04T06:52:49;17.50;99.90
2931;DHT22;1475;51.454;7.150;2022-09-04T06:55:22;17.60;99.90
2931;DHT22;1475;51.454;7.150;2022-09-04T06:58:14;17.70;99.90
2931;DHT22;1475;51.454;7.150;2022-09-04T07:00:49;17.80;99.90
2931;DHT22;1475;51.454;7.150;2022-09-04T07:03:41;17.90;99.90
2931;DHT22;1475;51.454;7.150;2022-09-04T07:08:59;18.10;99.90
2931;DHT22;1475;51.454;7.150;2022-09-04T07:11:42;18.20;99.90
2931;DHT22;1475;51.454;7.150;2022-09-04T07:14:30;18.30;99.90
2931;DHT22;1475;51.454;7.150;2022-09-04T07:20:00;18.50;99.90
2931;DHT22;1475;51.454;7.150;2022-09-04T07:22:58;18.60;99.90
2931;DHT22;1475;51.454;7.150;2022-09-04T07:25:39;18.80;99.90
2931;DHT22;1475;51.454;7.150;2022-09-04T07:28:21;18.90;99.90
2931;DHT22;1475;51.454;7.150;2022-09-04T07:31:00;19.00;99.90
2931;DHT22;1475;51.454;7.150;2022-09-04T07:33:34;19.10;99.90
2931;DHT22;1475;51.454;7.150;2022-09-04T07:36:07;19.20;99.90
2931;DHT22;1475;51.454;7.150;2022-09-04T07:38:39;19.30;99.90
2931;DHT22;1475;51.454;7.150;2022-09-04T07:43:54;19.50;99.90
2931;DHT22;1475;51.454;7.150;2022-09-04T07:46:29;19.60;99.90
2931;DHT22;1475;51.454;7.150;2022-09-04T07:49:05;19.70;99.90
2931;DHT22;1475;51.454;7.150;2022-09-04T07:51:40;19.80;99.90
2931;DHT22;1475;51.454;7.150;2022-09-04T07:57:43;20.00;99.90
2931;DHT22;1475;51.454;7.150;2022-09-04T08:00:15;20.10;99.90
2931;DHT22;1475;51.454;7.150;2022-09-04T08:02:58;20.20;99.90
2931;DHT22;1475;51.454;7.150;2022-09-04T08:05:30;20.40;99.90
2931;DHT22;1475;51.454;7.150;2022-09-04T08:08:10;20.50;99.90
2931;DHT22;1475;51.454;7.150;2022-09-04T08:10:53;20.60;99.90
2931;DHT22;1475;51.454;7.150;2022-09-04T08:13:44;20.70;99.90
2931;DHT22;1475;51.454;7.150;2022-09-04T08:16:23;20.80;99.90
2931;DHT22;1475;51.454;7.150;2022-09-04T08:19:06;20.90;99.90
2931;DHT22;1475;51.454;7.150;2022-09-04T08:21:38;21.00;99.90
2931;DHT22;1475;51.454;7.150;2022-09-04T08:27:17;21.30;99.90
2931;DHT22;1475;51.454;7.150;2022-09-04T08:30:07;21.40;99.90
2931;DHT22;1475;51.454;7.150;2022-09-04T08:33:07;21.50;99.90
2931;DHT22;1475;51.454;7.150;2022-09-04T08:35:51;21.60;99.90
2931;DHT22;1475;51.454;7.150;2022-09-04T08:38:30;21.70;99.90
2931;DHT22;1475;51.454;7.150;2022-09-04T08:41:25;21.80;99.90
2931;DHT22;1475;51.454;7.150;2022-09-04T08:44:25;21.90;99.90
2931;DHT22;1475;51.454;7.150;2022-09-04T08:56:35;22.40;99.90
2931;DHT22;1475;51.454;7.150;2022-09-04T09:14:50;23.10;99.90
2931;DHT22;1475;51.454;7.150;2022-09-04T09:17:28;23.20;99.90
2931;DHT22;1475;51.454;7.150;2022-09-04T09:20:22;23.30;99.90
2931;DHT22;1475;51.454;7.150;2022-09-04T09:23:18;23.40;99.90
2931;DHT22;1475;51.454;7.150;2022-09-04T09:25:51;23.50;99.90
2931;DHT22;1475;51.454;7.150;2022-09-04T09:28:43;23.60;99.90
2931;DHT22;1475;51.454;7.150;2022-09-04T09:34:47;23.80;99.90
2931;DHT22;1475;51.454;7.150;2022-09-04T09:40:57;24.00;99.90
2931;DHT22;1475;51.454;7.150;2022-09-04T09:50:50;24.60;99.90
2931;DHT22;1475;51.454;7.150;2022-09-04T10:33:33;25.80;99.90
2931;DHT22;1475;51.454;7.150;2022-09-04T11:34:56;28.50;99.90
2931;DHT22;1475;51.454;7.150;2022-09-04T11:37:58;29.50;99.90
2931;DHT22;1475;51.454;7.150;2022-09-04T11:47:07;32.60;99.90
2931;DHT22;1475;51.454;7.150;2022-09-04T11:50:13;34.20;94.10
2931;DHT22;1475;51.454;7.150;2022-09-04T11:53:01;35.60;87.30
2931;DHT22;1475;51.454;7.150;2022-09-04T11:55:49;36.50;81.70
2931;DHT22;1475;51.454;7.150;2022-09-04T11:58:41;36.60;73.10
2931;DHT22;1475;51.454;7.150;2022-09-04T12:01:24;36.70;69.50
2931;DHT22;1475;51.454;7.150;2022-09-04T12:04:07;35.90;67.80
2931;DHT22;1475;51.454;7.150;2022-09-04T12:06:52;35.40;67.50
2931;DHT22;1475;51.454;7.150;2022-09-04T12:09:38;36.30;66.90
2931;DHT22;1475;51.454;7.150;2022-09-04T12:12:37;36.90;60.30
2931;DHT22;1475;51.454;7.150;2022-09-04T12:18:30;37.30;57.60
2931;DHT22;1475;51.454;7.150;2022-09-04T12:21:29;37.90;57.40
2931;DHT22;1475;51.454;7.150;2022-09-04T12:24:48;38.20;53.40
2931;DHT22;1475;51.454;7.150;2022-09-04T12:27:47;37.30;52.90
2931;DHT22;1475;51.454;7.150;2022-09-04T12:30:19;36.20;54.50
2931;DHT22;1475;51.454;7.150;2022-09-04T12:33:26;35.40;56.20
2931;DHT22;1475;51.454;7.150;2022-09-04T12:36:31;35.60;59.50
2931;DHT22;1475;51.454;7.150;2022-09-04T12:39:20;37.00;55.70
2931;DHT22;1475;51.454;7.150;2022-09-04T12:41:58;37.60;49.00
2931;DHT22;1475;51.454;7.150;2022-09-04T12:44:40;37.10;47.60
2931;DHT22;1475;51.454;7.150;2022-09-04T12:47:19;36.70;48.90
2931;DHT22;1475;51.454;7.150;2022-09-04T12:50:14;36.40;49.50
2931;DHT22;1475;51.454;7.150;2022-09-04T12:56:10;33.70;54.50
2931;DHT22;1475;51.454;7.150;2022-09-04T12:58:53;33.50;59.40
2931;DHT22;1475;51.454;7.150;2022-09-04T13:01:37;34.80;59.70
2931;DHT22;1475;51.454;7.150;2022-09-04T13:04:13;36.60;54.40
2931;DHT22;1475;51.454;7.150;2022-09-04T13:06:53;37.80;50.80
2931;DHT22;1475;51.454;7.150;2022-09-04T13:09:33;38.70;46.40
2931;DHT22;1475;51.454;7.150;2022-09-04T13:12:09;38.90;44.20
2931;DHT22;1475;51.454;7.150;2022-09-04T13:17:49;39.90;39.00
2931;DHT22;1475;51.454;7.150;2022-09-04T13:20:27;40.20;34.50
2931;DHT22;1475;51.454;7.150;2022-09-04T13:23:13;39.80;33.80
2931;DHT22;1475;51.454;7.150;2022-09-04T13:25:54;40.50;31.40
2931;DHT22;1475;51.454;7.150;2022-09-04T13:28:37;41.50;29.70
2931;DHT22;1475;51.454;7.150;2022-09-04T13:31:31;41.70;27.00
2931;DHT22;1475;51.454;7.150;2022-09-04T13:34:08;41.30;25.00
2931;DHT22;1475;51.454;7.150;2022-09-04T13:36:46;41.10;25.20
2931;DHT22;1475;51.454;7.150;2022-09-04T13:45:09;40.10;24.60
2931;DHT22;1475;51.454;7.150;2022-09-04T13:47:44;40.20;24.30
2931;DHT22;1475;51.454;7.150;2022-09-04T13:50:18;40.00;24.50
2931;DHT22;1475;51.454;7.150;2022-09-04T13:52:50;39.70;25.00
2931;DHT22;1475;51.454;7.150;2022-09-04T13:55:24;39.70;25.40
2931;DHT22;1475;51.454;7.150;2022-09-04T13:57:59;39.30;25.40
2931;DHT22;1475;51.454;7.150;2022-09-04T14:00:30;38.80;25.80
2931;DHT22;1475;51.454;7.150;2022-09-04T14:03:02;38.20;26.60
2931;DHT22;1475;51.454;7.150;2022-09-04T14:05:33;37.30;29.20
2931;DHT22;1475;51.454;7.150;2022-09-04T14:08:15;36.10;29.90
2931;DHT22;1475;51.454;7.150;2022-09-04T14:11:00;35.20;35.70
2931;DHT22;1475;51.454;7.150;2022-09-04T14:13:39;34.60;38.60
2931;DHT22;1475;51.454;7.150;2022-09-04T14:16:09;34.00;43.00
2931;DHT22;1475;51.454;7.150;2022-09-04T14:18:56;33.60;46.10
2931;DHT22;1475;51.454;7.150;2022-09-04T14:21:40;33.10;51.20
2931;DHT22;1475;51.454;7.150;2022-09-04T14:24:16;32.60;53.70
2931;DHT22;1475;51.454;7.150;2022-09-04T14:26:52;32.10;57.40
2931;DHT22;1475;51.454;7.150;2022-09-04T14:29:26;31.90;61.90
2931;DHT22;1475;51.454;7.150;2022-09-04T14:32:07;31.80;60.50
2931;DHT22;1475;51.454;7.150;2022-09-04T14:34:49;31.70;61.50
2931;DHT22;1475;51.454;7.150;2022-09-04T14:37:39;31.70;63.20
2931;DHT22;1475;51.454;7.150;2022-09-04T14:40:14;31.80;63.10
2931;DHT22;1475;51.454;7.150;2022-09-04T14:42:45;32.00;65.20
2931;DHT22;1475;51.454;7.150;2022-09-04T14:45:23;32.20;64.90
2931;DHT22;1475;51.454;7.150;2022-09-04T14:48:00;32.40;59.90
2931;DHT22;1475;51.454;7.150;2022-09-04T14:50:46;32.80;59.20
2931;DHT22;1475;51.454;7.150;2022-09-04T14:53:20;33.20;56.40
2931;DHT22;1475;51.454;7.150;2022-09-04T14:56:36;33.50;56.00
2931;DHT22;1475;51.454;7.150;2022-09-04T14:59:12;34.20;53.00
2931;DHT22;1475;51.454;7.150;2022-09-04T15:02:00;34.60;50.10
2931;DHT22;1475;51.454;7.150;2022-09-04T15:04:32;35.30;49.30
2931;DHT22;1475;51.454;7.150;2022-09-04T15:07:27;35.90;46.70
2931;DHT22;1475;51.454;7.150;2022-09-04T15:10:06;36.50;44.50
2931;DHT22;1475;51.454;7.150;2022-09-04T15:12:38;37.20;42.90
2931;DHT22;1475;51.454;7.150;2022-09-04T15:15:09;37.80;40.70
2931;DHT22;1475;51.454;7.150;2022-09-04T15:17:44;38.50;35.80
2931;DHT22;1475;51.454;7.150;2022-09-04T15:20:19;38.80;33.10
2931;DHT22;1475;51.454;7.150;2022-09-04T15:23:06;39.80;30.30
2931;DHT22;1475;51.454;7.150;2022-09-04T15:25:44;40.10;28.80
2931;DHT22;1475;51.454;7.150;2022-09-04T15:28:17;39.90;27.50
2931;DHT22;1475;51.454;7.150;2022-09-04T15:30:59;39.80;26.60
2931;DHT22;1475;51.454;7.150;2022-09-04T15:33:27;39.40;26.20
2931;DHT22;1475;51.454;7.150;2022-09-04T15:36:04;38.80;26.40
2931;DHT22;1475;51.454;7.150;2022-09-04T15:38:35;38.50;27.30
2931;DHT22;1475;51.454;7.150;2022-09-04T15:41:13;38.50;26.80
2931;DHT22;1475;51.454;7.150;2022-09-04T15:43:42;38.50;25.80
2931;DHT22;1475;51.454;7.150;2022-09-04T15:46:17;38.50;27.00
2931;DHT22;1475;51.454;7.150;2022-09-04T15:48:49;38.30;24.30
2931;DHT22;1475;51.454;7.150;2022-09-04T15:51:27;37.90;23.50
2931;DHT22;1475;51.454;7.150;2022-09-04T15:54:14;37.70;25.20
2931;DHT22;1475;51.454;7.150;2022-09-04T15:56:59;38.10;23.90
2931;DHT22;1475;51.454;7.150;2022-09-04T15:59:35;38.10;22.80
2931;DHT22;1475;51.454;7.150;2022-09-04T16:02:16;38.10;22.70
2931;DHT22;1475;51.454;7.150;2022-09-04T16:04:48;38.30;23.10
2931;DHT22;1475;51.454;7.150;2022-09-04T16:07:31;38.10;22.50
2931;DHT22;1475;51.454;7.150;2022-09-04T16:10:12;37.60;23.90
2931;DHT22;1475;51.454;7.150;2022-09-04T16:12:48;37.10;24.00
2931;DHT22;1475;51.454;7.150;2022-09-04T16:15:19;36.50;24.40
2931;DHT22;1475;51.454;7.150;2022-09-04T16:17:51;35.90;25.30
2931;DHT22;1475;51.454;7.150;2022-09-04T16:20:21;35.50;26.60
2931;DHT22;1475;51.454;7.150;2022-09-04T16:22:52;35.00;25.50
2931;DHT22;1475;51.454;7.150;2022-09-04T16:25:26;34.50;26.50
2931;DHT22;1475;51.454;7.150;2022-09-04T16:28:00;34.20;28.50
2931;DHT22;1475;51.454;7.150;2022-09-04T16:30:33;34.00;29.70
2931;DHT22;1475;51.454;7.150;2022-09-04T16:33:02;33.80;30.90
2931;DHT22;1475;51.454;7.150;2022-09-04T16:35:33;33.70;32.00
2931;DHT22;1475;51.454;7.150;2022-09-04T16:38:05;33.60;32.80
2931;DHT22;1475;51.454;7.150;2022-09-04T16:40:38;33.40;34.10
2931;DHT22;1475;51.454;7.150;2022-09-04T16:43:15;33.10;35.90
2931;DHT22;1475;51.454;7.150;2022-09-04T16:45:48;32.90;37.20
2931;DHT22;1475;51.454;7.150;2022-09-04T16:48:26;32.70;38.00
2931;DHT22;1475;51.454;7.150;2022-09-04T16:51:02;32.50;38.60
2931;DHT22;1475;51.454;7.150;2022-09-04T16:53:36;32.20;40.70
2931;DHT22;1475;51.454;7.150;2022-09-04T16:56:12;32.00;43.50
2931;DHT22;1475;51.454;7.150;2022-09-04T16:58:48;31.80;44.30
2931;DHT22;1475;51.454;7.150;2022-09-04T17:01:26;31.60;45.60
2931;DHT22;1475;51.454;7.150;2022-09-04T17:04:08;31.30;48.40
2931;DHT22;1475;51.454;7.150;2022-09-04T17:06:47;31.00;49.70
2931;DHT22;1475;51.454;7.150;2022-09-04T17:09:25;30.90;52.80
2931;DHT22;1475;51.454;7.150;2022-09-04T17:11:57;30.60;54.30
2931;DHT22;1475;51.454;7.150;2022-09-04T17:14:31;30.40;55.40
2931;DHT22;1475;51.454;7.150;2022-09-04T17:17:04;30.20;57.00
2931;DHT22;1475;51.454;7.150;2022-09-04T17:19:32;29.90;58.70
2931;DHT22;1475;51.454;7.150;2022-09-04T17:22:08;29.70;60.70
2931;DHT22;1475;51.454;7.150;2022-09-04T17:24:57;29.50;64.80
2931;DHT22;1475;51.454;7.150;2022-09-04T17:27:36;29.50;67.30
2931;DHT22;1475;51.454;7.150;2022-09-04T17:30:06;29.40;69.60
2931;DHT22;1475;51.454;7.150;2022-09-04T17:32:38;29.30;73.40
2931;DHT22;1475;51.454;7.150;2022-09-04T17:35:19;29.20;72.10
2931;DHT22;1475;51.454;7.150;2022-09-04T17:37:51;29.10;77.90
2931;DHT22;1475;51.454;7.150;2022-09-04T17:40:22;29.00;81.30
2931;DHT22;1475;51.454;7.150;2022-09-04T17:43:01;28.80;86.40
2931;DHT22;1475;51.454;7.150;2022-09-04T17:45:35;28.70;92.10
2931;DHT22;1475;51.454;7.150;2022-09-04T17:48:18;28.50;92.70
2931;DHT22;1475;51.454;7.150;2022-09-04T17:50:48;28.30;93.20
2931;DHT22;1475;51.454;7.150;2022-09-04T17:53:20;28.20;94.40
2931;DHT22;1475;51.454;7.150;2022-09-04T17:55:50;28.00;96.70
2931;DHT22;1475;51.454;7.150;2022-09-04T17:58:25;27.80;98.10
2931;DHT22;1475;51.454;7.150;2022-09-04T18:00:59;27.70;99.80
2931;DHT22;1475;51.454;7.150;2022-09-04T18:03:32;27.50;99.60
2931;DHT22;1475;51.454;7.150;2022-09-04T18:06:03;27.30;99.90
2931;DHT22;1475;51.454;7.150;2022-09-04T18:08:33;27.00;99.90
2931;DHT22;1475;51.454;7.150;2022-09-04T18:11:07;26.90;99.90
2931;DHT22;1475;51.454;7.150;2022-09-04T18:13:40;26.70;99.90
2931;DHT22;1475;51.454;7.150;2022-09-04T18:16:31;26.50;99.90
2931;DHT22;1475;51.454;7.150;2022-09-04T18:19:12;26.30;99.90
2931;DHT22;1475;51.454;7.150;2022-09-04T18:21:44;26.00;99.90
2931;DHT22;1475;51.454;7.150;2022-09-04T18:24:16;25.80;99.90
2931;DHT22;1475;51.454;7.150;2022-09-04T18:26:48;25.60;99.90
2931;DHT22;1475;51.454;7.150;2022-09-04T18:29:47;25.40;99.90
2931;DHT22;1475;51.454;7.150;2022-09-04T18:32:21;25.20;99.90
2931;DHT22;1475;51.454;7.150;2022-09-04T18:34:57;25.00;99.90
2931;DHT22;1475;51.454;7.150;2022-09-04T18:37:29;24.80;99.90
2931;DHT22;1475;51.454;7.150;2022-09-04T18:40:14;24.70;99.90
2931;DHT22;1475;51.454;7.150;2022-09-04T18:42:49;24.50;99.90
2931;DHT22;1475;51.454;7.150;2022-09-04T18:45:22;24.40;99.90
2931;DHT22;1475;51.454;7.150;2022-09-04T18:47:52;24.30;99.90
2931;DHT22;1475;51.454;7.150;2022-09-04T18:50:27;24.10;99.90
2931;DHT22;1475;51.454;7.150;2022-09-04T18:58:26;23.80;99.90
2931;DHT22;1475;51.454;7.150;2022-09-04T19:00:59;23.60;99.90
2931;DHT22;1475;51.454;7.150;2022-09-04T19:03:39;23.50;99.90
2931;DHT22;1475;51.454;7.150;2022-09-04T19:06:10;23.40;99.90
2931;DHT22;1475;51.454;7.150;2022-09-04T19:08:44;23.30;99.90
2931;DHT22;1475;51.454;7.150;2022-09-04T19:11:18;23.20;99.90
2931;DHT22;1475;51.454;7.150;2022-09-04T19:13:50;23.10;99.90
2931;DHT22;1475;51.454;7.150;2022-09-04T19:16:25;23.00;99.90
2931;DHT22;1475;51.454;7.150;2022-09-04T19:18:58;22.90;99.90
2931;DHT22;1475;51.454;7.150;2022-09-04T19:21:32;22.90;99.90
2931;DHT22;1475;51.454;7.150;2022-09-04T19:24:16;22.80;99.90
2931;DHT22;1475;51.454;7.150;2022-09-04T19:27:05;22.70;99.90
2931;DHT22;1475;51.454;7.150;2022-09-04T19:29:41;22.60;99.90
2931;DHT22;1475;51.454;7.150;2022-09-04T19:32:15;22.60;99.90
2931;DHT22;1475;51.454;7.150;2022-09-04T19:34:50;22.50;99.90
2931;DHT22;1475;51.454;7.150;2022-09-04T19:37:26;22.40;99.90
2931;DHT22;1475;51.454;7.150;2022-09-04T19:39:58;22.40;99.90
2931;DHT22;1475;51.454;7.150;2022-09-04T19:42:30;22.30;99.90
2931;DHT22;1475;51.454;7.150;2022-09-04T19:45:04;22.30;99.90
2931;DHT22;1475;51.454;7.150;2022-09-04T19:47:53;22.20;99.90
2931;DHT22;1475;51.454;7.150;2022-09-04T19:50:31;22.10;99.90
2931;DHT22;1475;51.454;7.150;2022-09-04T19:53:09;22.10;99.90
2931;DHT22;1475;51.454;7.150;2022-09-04T19:55:40;22.00;99.90
2931;DHT22;1475;51.454;7.150;2022-09-04T19:58:12;21.90;99.90
2931;DHT22;1475;51.454;7.150;2022-09-04T20:00:45;21.90;99.90
2931;DHT22;1475;51.454;7.150;2022-09-04T20:03:20;21.80;99.90
2931;DHT22;1475;51.454;7.150;2022-09-04T20:05:53;21.70;99.90
2931;DHT22;1475;51.454;7.150;2022-09-04T20:08:27;21.70;99.90
2931;DHT22;1475;51.454;7.150;2022-09-04T20:10:57;21.60;99.90
2931;DHT22;1475;51.454;7.150;2022-09-04T20:13:32;21.60;99.90
2931;DHT22;1475;51.454;7.150;2022-09-04T20:16:03;21.50;99.90
2931;DHT22;1475;51.454;7.150;2022-09-04T20:18:36;21.50;99.90
2931;DHT22;1475;51.454;7.150;2022-09-04T20:21:09;21.40;99.90
2931;DHT22;1475;51.454;7.150;2022-09-04T20:23:42;21.30;99.90
2931;DHT22;1475;51.454;7.150;2022-09-04T20:26:19;21.30;99.90
2931;DHT22;1475;51.454;7.150;2022-09-04T20:28:55;21.20;99.90
2931;DHT22;1475;51.454;7.150;2022-09-04T20:31:41;21.20;99.90
2931;DHT22;1475;51.454;7.150;2022-09-04T20:34:25;21.10;99.90
2931;DHT22;1475;51.454;7.150;2022-09-04T20:36:59;21.10;99.90